Home > Products > Valid Products > TAF

000
FTUS46 KSEW 241500 AAA
TAFSEA
TAF AMD
KSEA 241500Z 2415/2518 00000KT P6SM SCT028 SCT120 OVC240
     FM241800 04006KT P6SM BKN060 OVC100
     FM250400 09010KT P6SM -RA OVC040=



000
FTUS46 KSEW 241100 CCA
TAFCLM
TAF COR
KCLM 241152Z 2412/2512 VRB03KT P6SM BKN060 BKN100
     FM241700 05008KT P6SM SCT060 BKN100
     FM251000 05008KT P6SM -RA OVC045
      AMD NOT SKED=



000
FTUS46 KSEW 241100
TAFOLM
TAF
KOLM 241136Z 2412/2512 00000KT 4SM BR SCT001 BKN020
      TEMPO 2412/2416 1/2SM FG BKN001 BKN020
     FM241600 VRB03KT P6SM SCT025 BKN040 BKN070
     FM242000 02006KT P6SM BKN070 OVC100
     FM250300 02006KT P6SM -RA OVC045
     FM250800 02006KT P6SM -RA OVC022=



000
FTUS46 KSEW 241100
TAFCLM
TAF
KCLM 241136Z 2412/2512 VRB03KT P6SM BKN060 BKN100
     FM241700 05008KT P6SM SCT060 BKN100
     FM251000 05008KT P6SM -RA OVC045=



000
FTUS46 KSEW 241100
TAFHQM
TAF
KHQM 241136Z 2412/2512 05008KT P6SM BKN060 BKN100
     FM241600 05008KT P6SM SCT060 BKN100
     FM250300 05008KT P6SM -RA OVC035
     FM250900 05008KT 3SM -RA OVC022=



000
FTUS46 KSEW 241100
TAFPAE
TAF
KPAE 241136Z 2412/2512 14006KT P6SM SCT025 OVC040
     FM241700 06008KT P6SM BKN060 OVC100
     FM250500 06008KT P6SM -RA OVC040=



000
FTUS46 KSEW 241100
TAFSEA
TAF
KSEA 241136Z 2412/2518 11006KT P6SM SCT025 OVC040
      TEMPO 2412/2414 BKN025 OVC040
     FM241800 04006KT P6SM BKN060 OVC100
     FM250400 09010KT P6SM -RA OVC040=



000
FTUS46 KSEW 241100
TAFBFI
TAF
KBFI 241136Z 2412/2512 VRB03KT P6SM SCT025 OVC040
     FM241800 VRB03KT P6SM BKN060 OVC100
     FM250400 11006KT P6SM -RA OVC045=



000
FTUS46 KSEW 241100
TAFBLI
TAF
KBLI 241136Z 2412/2512 VRB03KT P6SM SCT025 OVC040
      TEMPO 2414/2416 BKN025 OVC040
     FM241800 02008KT P6SM SCT035 BKN060 BKN100
     FM242100 02008KT P6SM SCT060 BKN100
     FM250900 02008KT P6SM -RA OVC040=



000
FTUS46 KSEW 240900 AAA
TAFSEA
TAF AMD
KSEA 240910Z 2409/2512 15008KT P6SM BKN060 BKN100
     FM241400 13006KT P6SM SCT060 BKN100
     FM241800 03008KT P6SM BKN100 BKN200
     FM250400 09008KT P6SM -RA OVC045=



000
FTUS46 KSEW 240500
TAFOLM
TAF
KOLM 240534Z 2406/2506 VRB03KT P6SM BKN050 BKN080
      TEMPO 2406/2408 4SM -SHRA BR
     FM240900 00000KT 4SM BR FEW002 SCT060 BKN100
      TEMPO 2411/2414 1SM BR BKN002 OVC060
     FM241700 02006KT P6SM SCT100 BKN200
     FM242100 02006KT P6SM BKN100 OVC200
     FM250300 02006KT P6SM -RA OVC045=



000
FTUS46 KSEW 240500
TAFCLM
TAF
KCLM 240534Z 2406/2506 VRB03KT P6SM SCT060 BKN100
     FM241600 05008KT P6SM SCT100 BKN200
     FM242200 05008KT P6SM BKN100 OVC200
      AMD NOT SKED=



000
FTUS46 KSEW 240500
TAFBLI
TAF
KBLI 240534Z 2406/2506 15006KT P6SM BKN060 BKN100
     FM241000 VRB03KT P6SM SCT060 BKN100
     FM241600 02008KT P6SM SCT100 BKN200
     FM242300 02008KT P6SM BKN100 OVC200=



000
FTUS46 KSEW 240500
TAFSEA
TAF
KSEA 240534Z 2406/2512 15008KT P6SM SCT060 BKN100
     FM240800 15008KT P6SM -SHRA BKN045 BKN070
     FM241000 13006KT P6SM SCT060 BKN100
     FM241800 03008KT P6SM BKN100 BKN200
     FM250400 03008KT P6SM -RA OVC045=



000
FTUS46 KSEW 240500
TAFHQM
TAF
KHQM 240534Z 2406/2506 07008KT P6SM -SHRA BKN050 BKN080
     FM240800 07008KT P6SM SCT060 BKN100
     FM241500 07008KT P6SM SCT100 BKN200
     FM242200 04008KT P6SM BKN100 OVC200
     FM250300 04008KT P6SM -RA OVC035=



000
FTUS46 KSEW 240500
TAFPAE
TAF
KPAE 240534Z 2406/2506 10006KT P6SM SCT025 BKN100
      TEMPO 2406/2408 BKN025 BKN100
     FM240800 10006KT P6SM -SHRA BKN045 BKN070
     FM241000 10006KT P6SM SCT060 BKN100
     FM241700 02008KT P6SM BKN100 BKN200
     FM250500 02008KT P6SM -RA OVC045=



000
FTUS46 KSEW 240500
TAFBFI
TAF
KBFI 240534Z 2406/2506 13006KT P6SM SCT060 BKN100
     FM240800 13006KT P6SM -SHRA BKN050 BKN070
     FM241000 VRB03KT P6SM SCT060 BKN100
     FM241800 VRB03KT P6SM BKN100 BKN200
     FM250400 02006KT P6SM -RA OVC045=



000
FTUS46 KSEW 240300 AAA
TAFSEA
TAF AMD
KSEA 240315Z 2403/2506 19007KT P6SM FEW035 SCT060 BKN110
     FM240800 13005KT P6SM SCT060 BKN110
     FM241800 04008KT P6SM SCT110 BKN200
     FM250300 04013KT P6SM OVC110 PROB30 2503/2506 -RA OVC080=



000
FTUS46 KSEW 240300 AAA
TAFSEA
TAF AMD
KSEA 240315Z 2403/2506 19007KT P6SM FEW035 SCT060 BKN110
     FM240800 13005KT P6SM SCT060 BKN110
     FM241800 04008KT P6SM SCT110 BKN200
     FM250300 04013KT P6SM OVC110 PROB30 2503/2506 -RA OVC080=



000
FTUS46 KSEW 232300 AAA
TAFPAE
TAF AMD
KPAE 232357Z 2400/2424 19015KT P6SM VCTS SCT035CB SCT060
      TEMPO 2400/2402 19015G23KT 5SM SHRA BKN035 OVC060
     FM240200 17009KT P6SM VCSH SCT060 BKN110
     FM240600 12006KT P6SM SCT060 BKN110
     FM241800 01005KT P6SM SCT110 BKN200=



000
FTUS46 KSEW 232300 RRA
TAFHQM
TAF
KHQM 232346Z 2400/2424 21009KT P6SM VCSH FEW035 SCT060 SCT110
      TEMPO 2400/2404 -SHRA BKN035 OVC060
     FM240400 17006KT P6SM VCSH SCT060 BKN110
     FM240900 12006KT P6SM SCT060 BKN110
     FM241500 06010KT P6SM SCT110 BKN200=



000
FTUS46 KSEW 232300 RRA
TAFPAE
TAF
KPAE 232346Z 2400/2424 19017G25KT P6SM VCTS SCT035CB BKN060
      TEMPO 2400/2402 5SM SHRA BKN035 OVC060
     FM240200 17010KT P6SM VCSH SCT035 BKN060 BKN110
     FM240600 12006KT P6SM SCT060 BKN110
     FM241800 01005KT P6SM SCT110 BKN200=



000
FTUS46 KSEW 232300 RRA
TAFBLI
TAF
KBLI 232346Z 2400/2424 19008KT P6SM VCSH SCT035 BKN060
      TEMPO 2400/2404 21012G20KT -SHRA BKN035 OVC060
     FM240400 15006KT P6SM VCSH SCT060 BKN110
     FM240800 11004KT P6SM SCT060 BKN110
     FM241800 02006KT P6SM SCT110 BKN200=



000
FTUS46 KSEW 232300 RRA
TAFBFI
TAF
KBFI 232346Z 2400/2424 19007KT P6SM VCTS SCT035CB BKN060
      TEMPO 2400/2402 24013G23KT 3SM +SHRA OVC030
     FM240200 17005KT P6SM VCSH FEW035 SCT060 BKN110
     FM240600 VRB03KT P6SM SCT060 BKN110
     FM241800 35005KT P6SM SCT110 BKN200=



000
FTUS46 KSEW 232300 RRA
TAFSEA
TAF
KSEA 232346Z 2400/2506 20009KT P6SM VCTS SCT035CB BKN060
      TEMPO 2400/2402 23013G23KT 3SM +SHRA OVC028
     FM240200 19007KT P6SM VCSH FEW035 SCT060 BKN110
     FM240600 13005KT P6SM SCT060 BKN110
     FM241800 04008KT P6SM SCT110 BKN200
     FM250300 04013KT P6SM OVC110 PROB30 2503/2506 -RA OVC080=



000
FTUS46 KSEW 232300 RRA
TAFCLM
TAF
KCLM 232346Z 2400/2424 27006KT P6SM VCSH SCT035 BKN060 BKN110
      TEMPO 2400/2402 -SHRA BKN035 OVC060
     FM240400 VRB03KT P6SM VCSH SCT060 BKN110
     FM241200 VRB03KT P6SM SCT110 BKN200
      AMD NOT SKED=



000
FTUS46 KSEW 232300 RRA
TAFOLM
TAF
KOLM 232346Z 2400/2424 20009KT P6SM VCTS BKN035CB BKN060
      TEMPO 2400/2402 -SHRA
     FM240200 20006KT P6SM VCSH SCT035 BKN060 BKN110
      TEMPO 2402/2406 -SHRA
     FM240600 VRB03KT P6SM SCT060 BKN110
     FM240900 00000KT 4SM BR FEW003 SCT060 SCT110
     FM241800 02006KT P6SM SCT110 BKN200=



000
FTUS46 KSEW 232200 AAB
TAFBFI
TAF AMD
KBFI 232255Z 2323/2418 19013KT P6SM VCTS SCT040CB BKN060
      TEMPO 2323/2401 19013G20KT 5SM SHRA OVC030
     FM240100 19008KT P6SM SCT040 BKN060
      TEMPO 2401/2404 -SHRA
     FM240400 15005KT P6SM SCT035 BKN060 BKN110
     FM241200 VRB03KT P6SM SCT060 BKN110=



000
FTUS46 KSEW 232200 AAB
TAFHQM
TAF AMD
KHQM 232254Z 2323/2418 24015KT P6SM VCTS SCT035CB BKN060
      TEMPO 2323/2402 24013G22KT 2SM +TSRA BKN028CB OVC040
     FM240200 17006KT P6SM SCT035 BKN060
      TEMPO 2402/2406 -SHRA
     FM240600 11006KT P6SM SCT035 BKN060 BKN110
     FM241200 07008KT P6SM VCFG SCT110 BKN200=



000
FTUS46 KSEW 232200 AAA
TAFPAE
TAF AMD
KPAE 232242Z 2323/2418 19017G25KT P6SM VCTS SCT035CB BKN060
      TEMPO 2323/2401 5SM SHRA BKN035 OVC060
     FM240100 19012KT P6SM SCT035 BKN060
      TEMPO 2401/2404 -SHRA
     FM240400 15008KT P6SM SCT025 BKN060 BKN110
     FM241200 10006KT P6SM SCT025 SCT060 BKN110=



000
FTUS46 KSEW 232100 AAA
TAFHQM
TAF AMD
KHQM 232105Z 2321/2418 22015KT P6SM VCTS SCT035CB BKN060
      TEMPO 2321/2401 22013G22KT 5SM TSRA BKN028CB OVC040
     FM240200 17006KT P6SM SCT035 BKN060
      TEMPO 2402/2406 -SHRA
     FM240600 11006KT P6SM SCT035 BKN060 BKN110
     FM241200 07008KT P6SM VCFG SCT110 BKN200=



000
FTUS46 KSEW 232100 AAA
TAFOLM
TAF AMD
KOLM 232104Z 2321/2418 22013KT P6SM VCTS SCT035CB BKN060
      TEMPO 2321/2324 22013G20KT 3SM +TSRA OVC028CB
     FM240000 22009KT P6SM SCT035 BKN060
      TEMPO 2400/2404 -SHRA
     FM240400 VRB03KT P6SM SCT060 BKN110
     FM240900 00000KT 4SM BR FEW003 SCT060 BKN110=



000
FTUS46 KSEW 232100 AAA
TAFSEA
TAF AMD
KSEA 232103Z 2321/2424 19015KT P6SM VCTS SCT035CB BKN060
      TEMPO 2321/2324 19013G23KT -SHRA BKN035 OVC060
     FM240000 19010KT P6SM SCT035 BKN060
      TEMPO 2400/2404 -SHRA
     FM240400 17007KT P6SM SCT028 BKN060 BKN110
     FM241200 11005KT P6SM SCT060 BKN110
     FM241800 05008KT P6SM SCT110 BKN200=



000
FTUS46 KSEW 232100 AAA
TAFBFI
TAF AMD
KBFI 232103Z 2321/2418 17013KT P6SM VCTS SCT040CB BKN060
      TEMPO 2321/2324 17013G20KT 5SM SHRA OVC030
     FM240000 19008KT P6SM SCT040 BKN060
      TEMPO 2400/2404 -SHRA
     FM240400 15005KT P6SM SCT035 BKN060 BKN110
     FM241200 VRB03KT P6SM SCT060 BKN110=



000
FTUS46 KSEW 231700
TAFOLM
TAF
KOLM 231731Z 2318/2418 22009KT P6SM -SHRA BKN035 OVC060
     FM232000 22013KT P6SM VCSH SCT035 BKN060
      TEMPO 2320/2324 22013G20KT 5SM SHRA BKN035 OVC060
     FM240000 22009KT P6SM SCT035 BKN060
      TEMPO 2400/2404 -SHRA
     FM240400 VRB03KT P6SM SCT060 BKN110
     FM240900 00000KT 4SM BR FEW003 SCT060 BKN110=



000
FTUS46 KSEW 231700
TAFCLM
TAF
KCLM 231731Z 2318/2418 29006KT P6SM VCSH SCT030 BKN060 BKN110
      TEMPO 2318/2322 -SHRA BKN030 OVC060
     FM232200 29006KT P6SM VCSH SCT035 SCT060 BKN110
      TEMPO 2322/2402 -SHRA BKN035 OVC060
     FM240200 VRB03KT P6SM VCSH SCT060 BKN110
     FM241200 VRB03KT P6SM SCT110 BKN200
      AMD NOT SKED=



000
FTUS46 KSEW 231700
TAFSEA
TAF
KSEA 231731Z 2318/2424 16013KT P6SM -SHRA SCT035 OVC050
     FM232000 19015KT P6SM VCSH SCT035 BKN060
      TEMPO 2320/2324 19013G23KT -SHRA BKN035 OVC060
     FM240000 19010KT P6SM SCT035 BKN060
      TEMPO 2400/2404 -SHRA
     FM240400 17007KT P6SM SCT028 BKN060 BKN110
     FM241200 11005KT P6SM SCT060 BKN110
     FM241800 05008KT P6SM SCT110 BKN200=



000
FTUS46 KSEW 231700
TAFPAE
TAF
KPAE 231731Z 2318/2418 17013KT P6SM -SHRA SCT035 OVC060
     FM232000 19017G25KT P6SM VCSH SCT035 BKN060
      TEMPO 2320/2324 -SHRA BKN035 OVC060
     FM240000 19012KT P6SM SCT035 BKN060
      TEMPO 2400/2404 -SHRA
     FM240400 15008KT P6SM SCT025 BKN060 BKN110
     FM241200 10006KT P6SM SCT025 SCT060 BKN110=



000
FTUS46 KSEW 231700
TAFBLI
TAF
KBLI 231731Z 2318/2418 15015G23KT P6SM -SHRA SCT035 OVC060
     FM232000 17015G23KT P6SM VCSH SCT035 BKN060
      TEMPO 2320/2324 5SM SHRA BKN035 OVC060
     FM240000 17010KT P6SM SCT035 BKN060
      TEMPO 2400/2404 -SHRA
     FM240400 14006KT P6SM SCT028 BKN060 BKN110
     FM241200 VRB03KT P6SM SCT060 BKN110=



000
FTUS46 KSEW 231700
TAFHQM
TAF
KHQM 231731Z 2318/2418 19011KT P6SM SCT028 BKN050
      TEMPO 2318/2320 -SHRA BKN028 OVC050
     FM232000 22013KT P6SM VCTS SCT035CB BKN060
      TEMPO 2320/2402 22013G20KT 5SM SHRA BKN035CB OVC060
     FM240200 17006KT P6SM SCT035 BKN060
      TEMPO 2402/2406 -SHRA
     FM240600 11006KT P6SM SCT035 BKN060 BKN110
     FM241200 07008KT P6SM VCFG SCT110 BKN200=



000
FTUS46 KSEW 231700
TAFBFI
TAF
KBFI 231731Z 2318/2418 14008KT P6SM -SHRA OVC050
     FM232000 17013KT P6SM VCSH SCT040 BKN060
      TEMPO 2320/2324 17013G20KT -SHRA OVC040
     FM240000 19008KT P6SM SCT040 BKN060
      TEMPO 2400/2404 -SHRA
     FM240400 15005KT P6SM SCT035 BKN060 BKN110
     FM241200 VRB03KT P6SM SCT060 BKN110=



000
FTUS46 KSEW 231500 CCA
TAFSEA
TAF COR
KSEA 231503Z 2315/2418 15013KT P6SM -SHRA SCT035 OVC050
      TEMPO 2315/2318 15013G23KT 5SM SHRA BKN035 OVC050
     FM231800 19008KT P6SM -SHRA SCT025 BKN035 BKN050
     FM240200 19008KT P6SM SCT035 BKN060
     FM241200 19008KT P6SM BKN022 OVC040=



000
FTUS46 KSEW 231500 AAA
TAFBFI
TAF AMD
KBFI 231503Z 2315/2412 15013KT P6SM -SHRA SCT040 OVC060
      TEMPO 2315/2318 BKN040 OVC060
     FM231800 18008KT P6SM -SHRA SCT025 BKN040 BKN060
     FM240200 18008KT P6SM SCT040 BKN060=



000
FTUS46 KSEW 231500 AAA
TAFSEA
TAF AMD
KSEA 231502Z 2315/2418 15013KT P6SM -SHRA SCT035 OVC050
      TEMPO 2315/2318 5SM SHRA BKN035 OVC050
     FM231800 19008KT P6SM -SHRA SCT025 BKN035 BKN050
     FM240200 19008KT P6SM SCT035 BKN060
     FM241200 19008KT P6SM BKN022 OVC040=



000
FTUS46 KSEW 231500 AAA
TAFBLI
TAF AMD
KBLI 231501Z 2315/2412 15013G22KT P6SM -SHRA SCT035 SCT050 OVC090
      TEMPO 2315/2318 5SM SHRA BKN035 OVC050
     FM231800 16008KT P6SM -SHRA SCT025 BKN035 BKN050
     FM240200 16008KT P6SM SCT035 BKN060=



000
FTUS46 KSEW 231400 AAA
TAFHQM
TAF AMD
KHQM 231448Z 2315/2412 VRB05KT P6SM -SHRA SCT013 BKN025 OVC050
      TEMPO 2315/2318 2SM +SHRA BKN013 OVC030
     FM231800 18008KT P6SM -SHRA BKN035 OVC050
     FM232300 20008KT P6SM -SHRA SCT035 BKN050 BKN070=



000
FTUS46 KSEW 231400 AAA
TAFHQM
TAF AMD
KHQM 231448Z 2315/2412 VRB05KT P6SM -SHRA SCT013 BKN025 OVC050
      TEMPO 2315/2318 2SM +SHRA BKN013 OVC030
     FM231800 18008KT P6SM -SHRA BKN035 OVC050
     FM232300 20008KT P6SM -SHRA SCT035 BKN050 BKN070=



000
FTUS46 KSEW 231100
TAFCLM
TAF
KCLM 231132Z 2312/2412 26008KT P6SM SCT030 BKN060 BKN100
     FM231600 VRB03KT P6SM -SHRA SCT025 BKN035 BKN050
     FM240000 VRB03KT P6SM SCT035 BKN060
      AMD NOT SKED=



000
FTUS46 KSEW 231100
TAFOLM
TAF
KOLM 231132Z 2312/2412 19008KT P6SM SCT020 BKN040 BKN060
      TEMPO 2312/2316 5SM -SHRA
     FM231900 21008KT P6SM -SHRA BKN030 OVC050
     FM232300 21008KT P6SM -SHRA SCT025 BKN040 BKN070=



000
FTUS46 KSEW 231100
TAFSEA
TAF
KSEA 231132Z 2312/2418 17008KT P6SM -SHRA SCT035 BKN060 BKN100
     FM231700 19008KT P6SM -SHRA SCT025 BKN035 BKN050
     FM240200 19008KT P6SM SCT035 BKN060
     FM241200 19008KT P6SM BKN022 OVC040=



000
FTUS46 KSEW 231100
TAFBFI
TAF
KBFI 231132Z 2312/2412 16006KT P6SM -SHRA SCT040 BKN060 BKN100
     FM231700 18008KT P6SM -SHRA SCT025 BKN040 BKN060
     FM240200 18008KT P6SM SCT040 BKN060=



000
FTUS46 KSEW 231100
TAFHQM
TAF
KHQM 231132Z 2312/2412 07006KT P6SM -SHRA SCT035 BKN060 OVC100
     FM231800 18008KT P6SM -SHRA BKN035 OVC050
     FM232300 20008KT P6SM -SHRA SCT035 BKN050 BKN070=



000
FTUS46 KSEW 231100
TAFPAE
TAF
KPAE 231132Z 2312/2412 17012KT P6SM SCT060 BKN100
     FM231800 18008KT P6SM -SHRA SCT025 BKN035 BKN050
     FM240200 18008KT P6SM SCT035 BKN060=



000
FTUS46 KSEW 231100
TAFBLI
TAF
KBLI 231132Z 2312/2412 16008KT P6SM SCT025 BKN045 BKN060
     FM231800 16008KT P6SM -SHRA SCT025 BKN035 BKN050
     FM240200 16008KT P6SM SCT035 BKN060=



000
FTUS46 KSEW 230900 AAA
TAFSEA
TAF AMD
KSEA 230902Z 2309/2412 17008KT P6SM SCT030 BKN060 BKN100
     FM231700 19008KT P6SM -SHRA SCT025 BKN035 BKN050
     FM240200 19008KT P6SM SCT035 BKN060=



000
FTUS46 KSEW 230500
TAFOLM
TAF
KOLM 230538Z 2306/2406 19012KT P6SM SCT020 BKN040 BKN060
     FM231500 21012KT P6SM -SHRA BKN022 OVC050
     FM232100 21012KT P6SM -SHRA SCT025 BKN040 BKN070=



000
FTUS46 KSEW 230500
TAFBLI
TAF
KBLI 230538Z 2306/2406 18012G20KT P6SM SCT022 BKN035 OVC050
      TEMPO 2306/2310 -SHRA BKN022 OVC035
     FM231000 18010KT P6SM SCT025 BKN045 BKN060
     FM231700 16008KT P6SM -SHRA SCT025 BKN035 BKN050
     FM240200 16008KT P6SM SCT035 BKN060=



000
FTUS46 KSEW 230500
TAFPAE
TAF
KPAE 230538Z 2306/2406 18012G22KT P6SM SCT030 BKN060 BKN100
      TEMPO 2306/2308 -SHRA BKN030 OVC060
     FM231000 18010KT P6SM SCT030 BKN060 BKN100
     FM231700 18008KT P6SM -SHRA SCT025 BKN035 BKN050
     FM240200 18008KT P6SM SCT035 BKN060=



000
FTUS46 KSEW 230500
TAFCLM
TAF
KCLM 230538Z 2306/2406 26008KT P6SM SCT030 BKN060 BKN100
      TEMPO 2306/2308 -SHRA BKN030 OVC060
     FM231600 VRB03KT P6SM -SHRA SCT025 BKN035 BKN050
     FM240000 VRB03KT P6SM SCT035 BKN060
      AMD NOT SKED=



000
FTUS46 KSEW 230500
TAFBFI
TAF
KBFI 230538Z 2306/2406 18008KT P6SM SCT035 BKN060 BKN100
      TEMPO 2306/2308 -SHRA BKN035 OVC060
     FM231700 18008KT P6SM -SHRA SCT025 BKN040 BKN060
     FM240200 18008KT P6SM SCT040 BKN060=



000
FTUS46 KSEW 230500
TAFHQM
TAF
KHQM 230538Z 2306/2406 21010KT P6SM SCT070
     FM231100 18008KT P6SM -SHRA BKN025 OVC050
     FM232200 21012KT P6SM -SHRA SCT035 BKN045 BKN070=



000
FTUS46 KSEW 230500
TAFSEA
TAF
KSEA 230538Z 2306/2412 19012KT P6SM SCT030 BKN060 BKN100
      TEMPO 2306/2308 -SHRA BKN030 OVC060
     FM231700 19008KT P6SM -SHRA SCT025 BKN035 BKN050
     FM240200 19008KT P6SM SCT035 BKN060=



000
FTUS46 KSEW 230300 AAB
TAFHQM
TAF AMD
KHQM 230309Z 2303/2324 20012KT P6SM SCT015 BKN035 OVC050
      TEMPO 2304/2306 2SM -RA BR BKN015 OVC030
     FM230600 19008KT P6SM -SHRA BKN020 OVC050
     FM230900 17008KT P6SM -SHRA BKN028 OVC050
     FM231800 20013KT P6SM -SHRA SCT035 BKN050 BKN090 PROB30
      2318/2324 5SM TSRA OVC030CB=



000
FTUS46 KSEW 230300 AAA
TAFOLM
TAF AMD
KOLM 230309Z 2303/2324 19015KT 6SM -SHRA BR SCT015 BKN030 BKN050
     FM230700 21011KT P6SM -SHRA SCT020 BKN040 BKN060
     FM231800 21011KT P6SM -SHRA BKN022 OVC050
     FM232100 21011KT P6SM -SHRA SCT030 BKN050 BKN090 PROB30
      2321/2324 5SM TSRA OVC025CB=



000
FTUS46 KSEW 230300 AAA
TAFBLI
TAF AMD
KBLI 230305Z 2303/2324 14014G24KT P6SM BKN035 OVC050
     FM230600 17012KT P6SM -SHRA SCT025 BKN040 OVC060
     FM232100 17010KT P6SM -SHRA SCT030 BKN050 BKN090 PROB30
      2321/2324 5SM TSRA OVC025CB=



000
FTUS46 KSEW 230300 AAA
TAFPAE
TAF AMD
KPAE 230305Z 2303/2324 15010KT P6SM -RA BKN040 OVC060
     FM230600 18013KT P6SM -SHRA SCT022 BKN040 BKN070
     FM232100 18013KT P6SM -SHRA SCT028 BKN050 BKN090 PROB30
      2321/2324 5SM TSRA OVC022CB=



000
FTUS46 KSEW 230300 AAA
TAFBFI
TAF AMD
KBFI 230305Z 2303/2324 16006KT P6SM -RA BKN040 OVC060
     FM230600 18008KT P6SM -SHRA SCT030 BKN050 BKN080
     FM232100 19011KT P6SM -SHRA SCT035 BKN050 BKN090 PROB30
      2321/2324 5SM TSRA OVC030CB=



000
FTUS46 KSEW 230300 AAA
TAFSEA
TAF AMD
KSEA 230302Z 2303/2406 18008KT P6SM -RA BKN035 OVC050
     FM230500 20010KT P6SM -SHRA SCT030 BKN050 BKN080
     FM232100 21011KT P6SM -SHRA SCT030 BKN050 BKN090 PROB30
      2321/2402 5SM TSRA OVC025CB
     FM240200 19008KT P6SM SCT035 SCT050 BKN090 PROB30 2402/2406
      -SHRA=



000
FTUS46 KSEW 230000 AAA
TAFHQM
TAF AMD
KHQM 230017Z 2300/2324 17013G20KT 4SM -RA BR SCT008 OVC015
      TEMPO 2300/2304 2SM RA BR BKN008 OVC015
     FM230400 19011KT 5SM -RA BR BKN015 OVC030
     FM230600 19008KT P6SM -SHRA BKN020 OVC050
     FM230900 17008KT P6SM -SHRA BKN028 OVC050
     FM231800 20013KT P6SM -SHRA SCT035 BKN050 BKN090 PROB30
      2318/2324 5SM TSRA OVC030CB=



000
FTUS46 KSEW 230000 AAA
TAFHQM
TAF AMD
KHQM 230017Z 2300/2324 17013G20KT 4SM -RA BR SCT008 OVC015
      TEMPO 2300/2304 2SM RA BR BKN008 OVC015
     FM230400 19011KT 5SM -RA BR BKN015 OVC030
     FM230600 19008KT P6SM -SHRA BKN020 OVC050
     FM230900 17008KT P6SM -SHRA BKN028 OVC050
     FM231800 20013KT P6SM -SHRA SCT035 BKN050 BKN090 PROB30
      2318/2324 5SM TSRA OVC030CB=



000
FTUS46 KSEW 222300 RRA
TAFBFI
TAF
KBFI 222350Z 2300/2324 13006KT P6SM -RA SCT022 SCT050 OVC090
      TEMPO 2300/2302 5SM -RA BR BKN022 OVC050
     FM230200 13006KT 5SM -RA BR BKN018 OVC035
     FM230600 17011KT P6SM -SHRA SCT020 BKN035 OVC050
     FM232100 19011KT P6SM -SHRA SCT035 BKN050 BKN090 PROB30
      2321/2324 5SM TSRA OVC030CB=



000
FTUS46 KSEW 222300 RRA
TAFOLM
TAF
KOLM 222350Z 2300/2324 19009KT 4SM -RA BR FEW008 BKN015 OVC030
     FM230600 19009KT 6SM -SHRA BR BKN015 BKN030 BKN050
      TEMPO 2310/2314 2SM -SHRA BR BKN008 OVC015
     FM231800 21011KT P6SM -SHRA BKN022 OVC050
     FM232100 21011KT P6SM -SHRA SCT030 BKN050 BKN090 PROB30
      2321/2324 5SM TSRA OVC025CB=



000
FTUS46 KSEW 222300 RRA
TAFHQM
TAF
KHQM 222350Z 2300/2324 16012KT 5SM -SHRA SCT018 OVC035
      TEMPO 2300/2304 BKN018 OVC035
     FM230400 19009KT P6SM -SHRA BKN022 OVC050
     FM230900 19009KT P6SM -SHRA BKN035 BKN050 OVC090=



000
FTUS46 KSEW 222300 RRA
TAFPAE
TAF
KPAE 222350Z 2300/2324 15010KT P6SM -RA FEW012 SCT028 OVC050
      TEMPO 2300/2302 5SM -RA BR FEW012 BKN028 OVC050
     FM230200 15010KT 4SM -RA BR FEW008 BKN012 OVC028
     FM230600 18013KT P6SM -SHRA SCT012 BKN028 OVC050
     FM232100 18013KT P6SM -SHRA SCT028 BKN050 BKN090 PROB30
      2321/2324 5SM TSRA OVC022CB=



000
FTUS46 KSEW 222300 RRA
TAFCLM
TAF
KCLM 222350Z 2300/2324 VRB03KT P6SM -RA SCT035 BKN050 OVC090
     FM230200 VRB03KT 6SM -RA BR SCT015 BKN035 OVC050
      TEMPO 2302/2306 4SM -RA BR BKN015 OVC030
     FM230600 25005KT P6SM VCSH SCT020 BKN035 OVC050
      TEMPO 2306/2310 -SHRA BKN020 OVC035
     FM231000 25005KT P6SM VCSH SCT035 BKN050 BKN090
     FM231800 29006KT P6SM VCSH SCT050 BKN090 PROB30 2320/2324 -SHRA
      OVC050
      AMD NOT SKED=



000
FTUS46 KSEW 222300 RRA
TAFSEA
TAF
KSEA 222350Z 2300/2406 15007KT P6SM -RA FEW015 SCT030 OVC050
      TEMPO 2300/2302 5SM -RA BR FEW015 BKN030 OVC050
     FM230200 15007KT 5SM -RA BR BKN015 OVC030
     FM230600 19011KT P6SM -SHRA SCT015 BKN030 OVC050
     FM232100 21011KT P6SM -SHRA SCT030 BKN050 BKN090 PROB30
      2321/2402 5SM TSRA OVC025CB
     FM240200 19008KT P6SM SCT035 SCT050 BKN090 PROB30 2402/2406
      -SHRA=



000
FTUS46 KSEW 222300 RRA
TAFBLI
TAF
KBLI 222350Z 2300/2324 14009KT P6SM -RA SCT018 OVC035
     FM230200 14009KT 5SM -RA BR BKN018 OVC030
     FM230600 17012KT P6SM -SHRA SCT018 BKN030 OVC050
     FM232100 17010KT P6SM -SHRA SCT030 BKN050 BKN090 PROB30
      2321/2324 5SM TSRA OVC025CB=



000
FTUS46 KSEW 222300 RRA
TAFBLI
TAF
KBLI 222350Z 2300/2324 14009KT P6SM -RA SCT018 OVC035
     FM230200 14009KT 5SM -RA BR BKN018 OVC030
     FM230600 17012KT P6SM -SHRA SCT018 BKN030 OVC050
     FM232100 17010KT P6SM -SHRA SCT030 BKN050 BKN090 PROB30
      2321/2324 5SM TSRA OVC025CB=



000
FTUS46 KSEW 222300 RRA
TAFSEA
TAF
KSEA 222350Z 2300/2406 15007KT P6SM -RA FEW015 SCT030 OVC050
      TEMPO 2300/2302 5SM -RA BR FEW015 BKN030 OVC050
     FM230200 15007KT 5SM -RA BR BKN015 OVC030
     FM230600 19011KT P6SM -SHRA SCT015 BKN030 OVC050
     FM232100 21011KT P6SM -SHRA SCT030 BKN050 BKN090 PROB30
      2321/2402 5SM TSRA OVC025CB
     FM240200 19008KT P6SM SCT035 SCT050 BKN090 PROB30 2402/2406
      -SHRA=



000
FTUS46 KSEW 222300 RRA
TAFBFI
TAF
KBFI 222350Z 2300/2324 13006KT P6SM -RA SCT022 SCT050 OVC090
      TEMPO 2300/2302 5SM -RA BR BKN022 OVC050
     FM230200 13006KT 5SM -RA BR BKN018 OVC035
     FM230600 17011KT P6SM -SHRA SCT020 BKN035 OVC050
     FM232100 19011KT P6SM -SHRA SCT035 BKN050 BKN090 PROB30
      2321/2324 5SM TSRA OVC030CB=



000
FTUS46 KSEW 222300 RRA
TAFPAE
TAF
KPAE 222350Z 2300/2324 15010KT P6SM -RA FEW012 SCT028 OVC050
      TEMPO 2300/2302 5SM -RA BR FEW012 BKN028 OVC050
     FM230200 15010KT 4SM -RA BR FEW008 BKN012 OVC028
     FM230600 18013KT P6SM -SHRA SCT012 BKN028 OVC050
     FM232100 18013KT P6SM -SHRA SCT028 BKN050 BKN090 PROB30
      2321/2324 5SM TSRA OVC022CB=



000
FTUS46 KSEW 222300 RRA
TAFOLM
TAF
KOLM 222350Z 2300/2324 19009KT 4SM -RA BR FEW008 BKN015 OVC030
     FM230600 19009KT 6SM -SHRA BR BKN015 BKN030 BKN050
      TEMPO 2310/2314 2SM -SHRA BR BKN008 OVC015
     FM231800 21011KT P6SM -SHRA BKN022 OVC050
     FM232100 21011KT P6SM -SHRA SCT030 BKN050 BKN090 PROB30
      2321/2324 5SM TSRA OVC025CB=



000
FTUS46 KSEW 222300 RRA
TAFCLM
TAF
KCLM 222350Z 2300/2324 VRB03KT P6SM -RA SCT035 BKN050 OVC090
     FM230200 VRB03KT 6SM -RA BR SCT015 BKN035 OVC050
      TEMPO 2302/2306 4SM -RA BR BKN015 OVC030
     FM230600 25005KT P6SM VCSH SCT020 BKN035 OVC050
      TEMPO 2306/2310 -SHRA BKN020 OVC035
     FM231000 25005KT P6SM VCSH SCT035 BKN050 BKN090
     FM231800 29006KT P6SM VCSH SCT050 BKN090 PROB30 2320/2324 -SHRA
      OVC050
      AMD NOT SKED=



000
FTUS46 KSEW 222300 RRA
TAFHQM
TAF
KHQM 222350Z 2300/2324 16012KT 5SM -SHRA SCT018 OVC035
      TEMPO 2300/2304 BKN018 OVC035
     FM230400 19009KT P6SM -SHRA BKN022 OVC050
     FM230900 19009KT P6SM -SHRA BKN035 BKN050 OVC090=



000
FTUS46 KSEW 222200 AAB
TAFOLM
TAF AMD
KOLM 222240Z 2223/2318 19009KT 6SM -RA SCT013 BKN050 OVC090
      TEMPO 2223/2301 BKN013 OVC030
     FM230100 19009KT 3SM RA BR BKN009 OVC020
     FM230400 21009KT 6SM -RA BR BKN015 OVC030
     FM230900 VRB03KT 5SM -SHRA BR BKN015 OVC030=



000
FTUS46 KSEW 222200 AAB
TAFOLM
TAF AMD
KOLM 222240Z 2223/2318 19009KT 6SM -RA SCT013 BKN050 OVC090
      TEMPO 2223/2301 BKN013 OVC030
     FM230100 19009KT 3SM RA BR BKN009 OVC020
     FM230400 21009KT 6SM -RA BR BKN015 OVC030
     FM230900 VRB03KT 5SM -SHRA BR BKN015 OVC030=



000
FTUS46 KSEW 222200 AAB
TAFBFI
TAF AMD
KBFI 222239Z 2223/2318 15007KT P6SM -RA SCT035 SCT050 OVC090
      TEMPO 2223/2301 BKN035 OVC050
     FM230100 15007KT 5SM -RA BR SCT015 BKN030 OVC050
     FM230600 18008KT P6SM -SHRA BKN035 OVC050=



000
FTUS46 KSEW 222200 AAB
TAFBFI
TAF AMD
KBFI 222239Z 2223/2318 15007KT P6SM -RA SCT035 SCT050 OVC090
      TEMPO 2223/2301 BKN035 OVC050
     FM230100 15007KT 5SM -RA BR SCT015 BKN030 OVC050
     FM230600 18008KT P6SM -SHRA BKN035 OVC050=



000
FTUS46 KSEW 222200 AAB
TAFSEA
TAF AMD
KSEA 222237Z 2223/2324 14009KT P6SM -RA SCT030 SCT050 OVC090
      TEMPO 2223/2301 BKN030 OVC050
     FM230100 17012KT 3SM -RA BR SCT011 BKN025 OVC040
     FM230600 19010KT P6SM -SHRA BKN030 OVC050
     FM232100 19010KT P6SM -SHRA SCT030 BKN050 OVC090 PROB30
      2321/2324 5SM TSRA OVC025CB=



000
FTUS46 KSEW 222200 AAB
TAFCLM
TAF AMD
KCLM 222201Z 2222/2318 VRB03KT 6SM -RA BR FEW009 BKN018 OVC030
     FM230400 VRB03KT P6SM VCSH BKN022 OVC050
      TEMPO 2304/2308 -SHRA
     FM231200 VRB03KT P6SM VCSH SCT030 BKN050 OVC090 PROB30
      2312/2318 -SHRA BKN030 OVC050
      AMD NOT SKED=



000
FTUS46 KSEW 222200 AAA
TAFPAE
TAF AMD
KPAE 222200Z 2222/2318 15009KT 6SM -RA BR SCT005 BKN025 OVC050
      TEMPO 2222/2302 2SM -RA BR BKN005 OVC015
     FM230600 17013KT 6SM -SHRA BR BKN015 OVC030
     FM231500 17009KT P6SM -SHRA BKN022 OVC050=



000
FTUS46 KSEW 222100 AAB
TAFBLI
TAF AMD
KBLI 222100Z 2221/2318 17009KT P6SM SCT022 OVC040
      TEMPO 2221/2224 -RA BKN022 OVC040
     FM230000 17013KT P6SM -RA BKN022 OVC040
      TEMPO 2300/2304 4SM RA BR OVC015
     FM230600 17010KT P6SM -SHRA BKN028 OVC050
     FM231500 17007KT P6SM -SHRA BKN035 OVC050=



000
FTUS46 KSEW 222000 AAA
TAFSEA
TAF AMD
KSEA 222059Z 2221/2324 15009KT P6SM -RA SCT015 BKN030 OVC050
      TEMPO 2221/2224 4SM -RA BR SCT006 BKN015 OVC030
     FM230000 17012KT 3SM -RA BR SCT011 BKN025 OVC040
     FM230600 19010KT P6SM -SHRA BKN030 OVC050
     FM232100 19010KT P6SM -SHRA SCT030 BKN050 OVC090 PROB30
      2321/2324 5SM TSRA OVC025CB=



000
FTUS46 KSEW 222000 AAA
TAFHQM
TAF AMD
KHQM 222057Z 2221/2318 09008KT 6SM -SHRA BR SCT015 BKN030 OVC050
      TEMPO 2221/2224 1 1/2SM +RA BR SCT009 BKN015 OVC030
     FM230000 16012KT 5SM -SHRA SCT018 OVC035
      TEMPO 2300/2304 BKN018 OVC035
     FM230400 19009KT P6SM -SHRA BKN022 OVC050
     FM230900 19009KT P6SM -SHRA BKN035 BKN050 OVC090=



000
FTUS46 KSEW 222000 AAA
TAFBLI
TAF AMD
KBLI 222005Z 2220/2318 17013KT P6SM -RA BKN022 OVC040
      TEMPO 2300/2304 4SM RA BR OVC015
     FM230600 17010KT P6SM -SHRA BKN028 OVC050
     FM231500 17007KT P6SM -SHRA BKN035 OVC050=



000
FTUS46 KSEW 221900 AAA
TAFBFI
TAF AMD
KBFI 221909Z 2219/2318 15008KT 5SM -RA BR SCT008 BKN015 OVC030
      TEMPO 2219/2221 2SM RA BR BKN008 OVC015
     FM222100 15010KT 5SM -RA BR SCT015 OVC028
     FM230600 18008KT P6SM -SHRA BKN035 OVC050=



000
FTUS46 KSEW 221800 AAA
TAFCLM
TAF AMD
KCLM 221800Z 2218/2318 VRB03KT P6SM VCSH SCT035 SCT050 OVC130
      TEMPO 2220/2222 -RA BKN035 OVC050
     FM222200 VRB03KT 6SM -RA BR FEW009 BKN018 OVC030
     FM230400 VRB03KT P6SM VCSH BKN022 OVC050
      TEMPO 2304/2308 -SHRA
     FM231200 VRB03KT P6SM VCSH SCT030 BKN050 OVC090 PROB30
      2312/2318 -SHRA BKN030 OVC050=



000
FTUS46 KSEW 221800 AAA
TAFCLM
TAF AMD
KCLM 221800Z 2218/2318 VRB03KT P6SM VCSH SCT035 SCT050 OVC130
      TEMPO 2220/2222 -RA BKN035 OVC050
     FM222200 VRB03KT 6SM -RA BR FEW009 BKN018 OVC030
     FM230400 VRB03KT P6SM VCSH BKN022 OVC050
      TEMPO 2304/2308 -SHRA
     FM231200 VRB03KT P6SM VCSH SCT030 BKN050 OVC090 PROB30
      2312/2318 -SHRA BKN030 OVC050=



000
FTUS46 KSEW 221700 AAA
TAFOLM
TAF AMD
KOLM 221758Z 2218/2318 21009KT 5SM -RA BR SCT009 OVC020
      TEMPO 2218/2222 19010G20KT 3SM RA BR BKN009 OVC020
     FM222200 19009KT 3SM RA BR BKN009 OVC020
     FM230400 21009KT 6SM -RA BR BKN015 OVC030
     FM230900 VRB03KT 5SM -SHRA BR BKN015 OVC030=



000
FTUS46 KSEW 221700 AAA
TAFOLM
TAF AMD
KOLM 221758Z 2218/2318 21009KT 5SM -RA BR SCT009 OVC020
      TEMPO 2218/2222 19010G20KT 3SM RA BR BKN009 OVC020
     FM222200 19009KT 3SM RA BR BKN009 OVC020
     FM230400 21009KT 6SM -RA BR BKN015 OVC030
     FM230900 VRB03KT 5SM -SHRA BR BKN015 OVC030=



000
FTUS46 KSEW 221700
TAFBLI
TAF
KBLI 221720Z 2218/2318 15013G20KT P6SM BKN018 BKN040
      TEMPO 2218/2220 -RA
     FM222000 15013G20KT P6SM -RA BKN022 OVC040
      TEMPO 2300/2304 4SM RA BR OVC015
     FM230600 17010KT P6SM -SHRA BKN028 OVC050
     FM231500 17007KT P6SM -SHRA BKN035 OVC050=



000
FTUS46 KSEW 221700
TAFBFI
TAF
KBFI 221720Z 2218/2318 15008KT 6SM -RA BR SCT015 BKN028 OVC045
      TEMPO 2218/2220 2SM RA BR
     FM222000 15010KT 5SM -RA BR SCT015 OVC028
     FM230600 18008KT P6SM -SHRA BKN035 OVC050=



000
FTUS46 KSEW 221700
TAFCLM
TAF
KCLM 221720Z 2218/2318 VRB03KT P6SM VCSH BKN018 OVC030
      TEMPO 2218/2222 -RA
     FM222200 VRB03KT 6SM -RA BR FEW009 BKN018 OVC030
     FM230400 VRB03KT P6SM VCSH BKN022 OVC050
      TEMPO 2304/2308 -SHRA
     FM231200 VRB03KT P6SM VCSH SCT030 BKN050 OVC090 PROB30
      2312/2318 -SHRA BKN030 OVC050=



000
FTUS46 KSEW 221700
TAFPAE
TAF
KPAE 221720Z 2218/2318 15015KT 6SM -RA BR BKN008 OVC020
      TEMPO 2218/2222 2SM RA BR
     FM222200 15015KT 3SM -RA BR BKN008 OVC020
     FM230600 17013KT 6SM -SHRA BR BKN015 OVC030
     FM231500 17009KT P6SM -SHRA BKN022 OVC050=



000
FTUS46 KSEW 221700
TAFHQM
TAF
KHQM 221720Z 2218/2318 13008KT P6SM -SHRA SCT035 OVC050
      TEMPO 2218/2221 5SM -SHRA BR BKN035 OVC050
     FM222200 16012KT 5SM -SHRA SCT018 OVC035
      TEMPO 2222/2302 BKN018 OVC035
     FM230200 19009KT P6SM -SHRA BKN022 OVC050
     FM230900 19009KT P6SM -SHRA BKN035 BKN050 OVC090=



000
FTUS46 KSEW 221700
TAFSEA
TAF
KSEA 221720Z 2218/2324 17009KT 5SM -RA BR SCT011 BKN025 OVC040
      TEMPO 2218/2220 2SM RA BR
     FM222000 17012KT 3SM -RA BR SCT011 BKN025 OVC040
     FM230600 19010KT P6SM -SHRA BKN030 OVC050
     FM232100 19010KT P6SM -SHRA SCT030 BKN050 OVC090 PROB30
      2321/2324 5SM TSRA OVC025CB=



000
FTUS46 KSEW 221700
TAFOLM
TAF
KOLM 221720Z 2218/2318 21009KT 5SM -RA BR BKN009 OVC020
      TEMPO 2218/2222 3SM RA BR
     FM222200 19009KT 3SM RA BR BKN009 OVC020
     FM230400 21009KT 6SM -RA BR BKN015 OVC030
     FM230900 VRB03KT 5SM -SHRA BR BKN015 OVC030=



000
FTUS46 KSEW 221700
TAFOLM
TAF
KOLM 221720Z 2218/2318 21009KT 5SM -RA BR BKN009 OVC020
      TEMPO 2218/2222 3SM RA BR
     FM222200 19009KT 3SM RA BR BKN009 OVC020
     FM230400 21009KT 6SM -RA BR BKN015 OVC030
     FM230900 VRB03KT 5SM -SHRA BR BKN015 OVC030=



000
FTUS46 KSEW 221700
TAFBLI
TAF
KBLI 221720Z 2218/2318 15013G20KT P6SM BKN018 BKN040
      TEMPO 2218/2220 -RA
     FM222000 15013G20KT P6SM -RA BKN022 OVC040
      TEMPO 2300/2304 4SM RA BR OVC015
     FM230600 17010KT P6SM -SHRA BKN028 OVC050
     FM231500 17007KT P6SM -SHRA BKN035 OVC050=



000
FTUS46 KSEW 221700
TAFHQM
TAF
KHQM 221720Z 2218/2318 13008KT P6SM -SHRA SCT035 OVC050
      TEMPO 2218/2221 5SM -SHRA BR BKN035 OVC050
     FM222200 16012KT 5SM -SHRA SCT018 OVC035
      TEMPO 2222/2302 BKN018 OVC035
     FM230200 19009KT P6SM -SHRA BKN022 OVC050
     FM230900 19009KT P6SM -SHRA BKN035 BKN050 OVC090=



000
FTUS46 KSEW 221700
TAFCLM
TAF
KCLM 221720Z 2218/2318 VRB03KT P6SM VCSH BKN018 OVC030
      TEMPO 2218/2222 -RA
     FM222200 VRB03KT 6SM -RA BR FEW009 BKN018 OVC030
     FM230400 VRB03KT P6SM VCSH BKN022 OVC050
      TEMPO 2304/2308 -SHRA
     FM231200 VRB03KT P6SM VCSH SCT030 BKN050 OVC090 PROB30
      2312/2318 -SHRA BKN030 OVC050=



000
FTUS46 KSEW 221700
TAFBFI
TAF
KBFI 221720Z 2218/2318 15008KT 6SM -RA BR SCT015 BKN028 OVC045
      TEMPO 2218/2220 2SM RA BR
     FM222000 15010KT 5SM -RA BR SCT015 OVC028
     FM230600 18008KT P6SM -SHRA BKN035 OVC050=



000
FTUS46 KSEW 221700
TAFSEA
TAF
KSEA 221720Z 2218/2324 17009KT 5SM -RA BR SCT011 BKN025 OVC040
      TEMPO 2218/2220 2SM RA BR
     FM222000 17012KT 3SM -RA BR SCT011 BKN025 OVC040
     FM230600 19010KT P6SM -SHRA BKN030 OVC050
     FM232100 19010KT P6SM -SHRA SCT030 BKN050 OVC090 PROB30
      2321/2324 5SM TSRA OVC025CB=



000
FTUS46 KSEW 221700
TAFPAE
TAF
KPAE 221720Z 2218/2318 15015KT 6SM -RA BR BKN008 OVC020
      TEMPO 2218/2222 2SM RA BR
     FM222200 15015KT 3SM -RA BR BKN008 OVC020
     FM230600 17013KT 6SM -SHRA BR BKN015 OVC030
     FM231500 17009KT P6SM -SHRA BKN022 OVC050=



000
FTUS46 KSEW 221500 AAC
TAFPAE
TAF AMD
KPAE 221547Z 2216/2312 17015KT P6SM BKN008 OVC020
      TEMPO 2216/2218 2SM -SHRA BR BKN008 OVC020
     FM221800 15012KT P6SM -RA OVC030
     FM230200 18010KT P6SM BKN030 OVC050=



000
FTUS46 KSEW 221500 AAA
TAFBLI
TAF AMD
KBLI 221522Z 2215/2312 15013G22KT P6SM BKN020 BKN040
      TEMPO 2215/2218 -SHRA
     FM222200 19008KT P6SM BKN030 OVC050=



000
FTUS46 KSEW 221500 AAA
TAFBFI
TAF AMD
KBFI 221521Z 2215/2312 17008KT P6SM SCT028 OVC040
      TEMPO 2215/2218 -SHRA BKN028 OVC040
     FM222200 15008KT P6SM -RA OVC040
     FM230600 18006KT P6SM VCSH OVC040=



000
FTUS46 KSEW 221500 AAB
TAFPAE
TAF AMD
KPAE 221521Z 2215/2312 17015KT P6SM BKN008 OVC020
      TEMPO 2215/2218 -SHRA BKN008 OVC020
     FM221800 15012KT P6SM -RA OVC030
     FM230200 18010KT P6SM BKN030 OVC050=



000
FTUS46 KSEW 221400 AAA
TAFHQM
TAF AMD
KHQM 221441Z 2215/2312 22010KT P6SM -SHRA SCT020 OVC040
      TEMPO 2215/2218 5SM -SHRA BR BKN020 OVC040
     FM221800 18010KT P6SM -RA OVC015
     FM230200 19008KT P6SM OVC025=



000
FTUS46 KSEW 221400 AAB
TAFOLM
TAF AMD
KOLM 221440Z 2215/2312 20013KT 6SM -RA BR SCT011 BKN028 OVC045
      TEMPO 2215/2218 3SM RA BR BKN011 OVC028
     FM221800 19013G20KT 4SM -RA BR OVC030
     FM230700 23008KT P6SM OVC030=



000
FTUS46 KSEW 221400 AAA
TAFCLM
TAF AMD
KCLM 221439Z 2215/2312 VRB05KT P6SM VCSH SCT002 BKN015 OVC030
      TEMPO 2215/2218 -SHRA BKN002 OVC015
     FM221800 31006KT P6SM VCSH SCT015 BKN030 BKN050
     FM222200 31006KT P6SM OVC035
     FM230600 VRB04KT P6SM BKN050=



000
FTUS46 KSEW 221400 AAA
TAFSEA
TAF AMD
KSEA 221436Z 2215/2318 17013KT P6SM -RA SCT028 OVC040
      TEMPO 2215/2218 BKN028 OVC040
     FM221800 18013G23KT P6SM -RA SCT028 OVC040
     FM222200 19012KT P6SM -RA OVC035
     FM230600 20010KT P6SM VCSH OVC035=



000
FTUS46 KSEW 221300 AAA
TAFPAE
TAF AMD
KPAE 221352Z 2214/2312 20010KT P6SM -RA OVC040
      TEMPO 2214/2216 2SM RA BR BKN003
     FM221600 16013KT P6SM -RA OVC035
     FM221800 15012KT P6SM -RA OVC030
     FM230200 18010KT P6SM BKN030 OVC050=



000
FTUS46 KSEW 221300 AAA
TAFOLM
TAF AMD
KOLM 221310Z 2213/2312 18014G26KT P6SM -RA OVC045
      TEMPO 2213/2215 2SM RA BR SCT011 BKN030
     FM221700 19013G20KT 4SM -RA BR OVC030
     FM230700 23008KT P6SM OVC030=



000
FTUS46 KSEW 221100
TAFCLM
TAF
KCLM 221120Z 2212/2312 VRB04KT 5SM -RA OVC045
      TEMPO 2212/2213 2SM RA BR OVC030
     FM221500 27006KT P6SM -RA OVC030
     FM222200 31006KT P6SM OVC035
     FM230600 VRB04KT P6SM BKN050=



000
FTUS46 KSEW 221100
TAFBFI
TAF
KBFI 221120Z 2212/2312 16010KT P6SM -RA OVC050
     FM221400 16010KT P6SM -RA OVC045
     FM222200 15008KT P6SM -RA OVC040
     FM230600 18006KT P6SM VCSH OVC040=



000
FTUS46 KSEW 221100
TAFOLM
TAF
KOLM 221120Z 2212/2312 18014G26KT P6SM -RA OVC045
     FM221700 19013G20KT 4SM -RA BR OVC030
     FM230700 23008KT P6SM OVC030=



000
FTUS46 KSEW 221100
TAFPAE
TAF
KPAE 221120Z 2212/2312 15012G20KT P6SM -RA OVC040
     FM221400 16013G22KT P6SM -RA OVC035
     FM221800 15012KT P6SM -RA OVC030
     FM230200 18010KT P6SM BKN030 OVC050=



000
FTUS46 KSEW 221100
TAFSEA
TAF
KSEA 221120Z 2212/2318 17012G22KT P6SM -RA OVC045
     FM221400 18013G22KT P6SM -RA OVC040
     FM222200 19012KT P6SM -RA OVC035
     FM230600 20010KT P6SM VCSH OVC035=



000
FTUS46 KSEW 221100
TAFHQM
TAF
KHQM 221120Z 2212/2312 16025G35KT 5SM -RA BR OVC015
      TEMPO 2212/2214 2SM RA BR OVC015
     FM221400 17014G23KT P6SM -RA OVC015
     FM221600 18010KT P6SM -RA OVC015
     FM230200 19008KT P6SM OVC025=



000
FTUS46 KSEW 221100
TAFBLI
TAF
KBLI 221120Z 2212/2312 15018G30KT P6SM -RA OVC035
     FM221500 17010KT P6SM -RA OVC025
     FM222200 19008KT P6SM BKN030 OVC050=



000
FTUS46 KSEW 220800 AAA
TAFSEA
TAF AMD
KSEA 220815Z 2208/2312 16012KT P6SM OVC060
     FM220900 17015G25KT P6SM -RA OVC035
     FM221400 18013G22KT 5SM -RA BR OVC025
     FM222200 15012KT 5SM RA BR OVC025
     FM230600 18013G22KT P6SM -RA OVC025=



000
FTUS46 KSEW 220500
TAFBLI
TAF
KBLI 220520Z 2206/2306 15020G30KT P6SM -RA OVC050
     FM220700 16022G30KT P6SM -RA OVC035
     FM221000 15025G38KT 5SM RA BR OVC020
     FM221600 15020G30KT P6SM -RA OVC025
     FM230000 16015G22KT P6SM -RA OVC022=



000
FTUS46 KSEW 220500
TAFPAE
TAF
KPAE 220520Z 2206/2306 17013G22KT P6SM -RA OVC040
     FM220900 15015G25KT P6SM RA OVC030
     FM221300 16018G28KT 5SM RA BR OVC022
     FM221800 15015G25KT 5SM RA BR OVC018=



000
FTUS46 KSEW 220500
TAFOLM
TAF
KOLM 220520Z 2206/2306 17014G24KT P6SM -RA OVC040
     FM220800 18015G25KT 5SM RA BR OVC025
     FM221600 19013G20KT 4SM RA BR OVC020=



000
FTUS46 KSEW 220500
TAFBFI
TAF
KBFI 220520Z 2206/2306 14008KT P6SM -RA OVC050
     FM220900 16012KT P6SM RA OVC035
     FM221400 16012G20KT P6SM RA OVC030
     FM222200 15010KT 6SM RA BR OVC025=



000
FTUS46 KSEW 220500
TAFHQM
TAF
KHQM 220520Z 2206/2306 12022G35KT 2SM RA BR OVC015
     FM221500 17018G30KT 4SM -RA OVC012
     FM221800 16013KT 5SM -RA BR OVC015=



000
FTUS46 KSEW 220500
TAFCLM
TAF
KCLM 220520Z 2206/2306 08004KT P6SM -RA OVC040
     FM220900 VRB04KT 5SM RA BR OVC025
     FM221900 27006KT P6SM -RA OVC025
     FM230000 31007KT 5SM -SHRA BR OVC020=



000
FTUS46 KSEW 220500
TAFSEA
TAF
KSEA 220520Z 2206/2312 17012KT P6SM -RA OVC040
     FM220900 17015G25KT P6SM RA OVC030
     FM221400 18013G22KT 5SM RA BR OVC025
     FM222200 15012KT 5SM RA BR OVC025
     FM230600 18013G22KT P6SM -RA OVC025=



000
FTUS46 KSEW 220500
TAFCLM
TAF
KCLM 220520Z 2206/2306 08004KT P6SM -RA OVC040
     FM220900 VRB04KT 5SM RA BR OVC025
     FM221900 27006KT P6SM -RA OVC025
     FM230000 31007KT 5SM -SHRA BR OVC020=



000
FTUS46 KSEW 220500
TAFPAE
TAF
KPAE 220520Z 2206/2306 17013G22KT P6SM -RA OVC040
     FM220900 15015G25KT P6SM RA OVC030
     FM221300 16018G28KT 5SM RA BR OVC022
     FM221800 15015G25KT 5SM RA BR OVC018=



000
FTUS46 KSEW 220500
TAFHQM
TAF
KHQM 220520Z 2206/2306 12022G35KT 2SM RA BR OVC015
     FM221500 17018G30KT 4SM -RA OVC012
     FM221800 16013KT 5SM -RA BR OVC015=



000
FTUS46 KSEW 220500
TAFBLI
TAF
KBLI 220520Z 2206/2306 15020G30KT P6SM -RA OVC050
     FM220700 16022G30KT P6SM -RA OVC035
     FM221000 15025G38KT 5SM RA BR OVC020
     FM221600 15020G30KT P6SM -RA OVC025
     FM230000 16015G22KT P6SM -RA OVC022=



000
FTUS46 KSEW 220500
TAFSEA
TAF
KSEA 220520Z 2206/2312 17012KT P6SM -RA OVC040
     FM220900 17015G25KT P6SM RA OVC030
     FM221400 18013G22KT 5SM RA BR OVC025
     FM222200 15012KT 5SM RA BR OVC025
     FM230600 18013G22KT P6SM -RA OVC025=



000
FTUS46 KSEW 220500
TAFBFI
TAF
KBFI 220520Z 2206/2306 14008KT P6SM -RA OVC050
     FM220900 16012KT P6SM RA OVC035
     FM221400 16012G20KT P6SM RA OVC030
     FM222200 15010KT 6SM RA BR OVC025=



000
FTUS46 KSEW 220500
TAFOLM
TAF
KOLM 220520Z 2206/2306 17014G24KT P6SM -RA OVC040
     FM220800 18015G25KT 5SM RA BR OVC025
     FM221600 19013G20KT 4SM RA BR OVC020=



000
FTUS46 KSEW 220200 AAA
TAFBFI
TAF AMD
KBFI 220254Z 2203/2224 15012KT P6SM OVC060
     FM220400 15010KT P6SM -RA OVC045
     FM220900 16012G20KT P6SM -RA OVC030
     FM221800 17010KT P6SM -SHRA BKN030 OVC060=



000
FTUS46 KSEW 220200 AAA
TAFBFI
TAF AMD
KBFI 220254Z 2203/2224 15012KT P6SM OVC060
     FM220400 15010KT P6SM -RA OVC045
     FM220900 16012G20KT P6SM -RA OVC030
     FM221800 17010KT P6SM -SHRA BKN030 OVC060=



000
FTUS46 KSEW 220200 AAA
TAFPAE
TAF AMD
KPAE 220253Z 2203/2224 15015G25KT P6SM VCSH OVC050
     FM220500 17018G28KT P6SM -RA OVC030
     FM221800 18013G22KT P6SM -SHRA BKN025 OVC040=



000
FTUS46 KSEW 220200 AAA
TAFPAE
TAF AMD
KPAE 220253Z 2203/2224 15015G25KT P6SM VCSH OVC050
     FM220500 17018G28KT P6SM -RA OVC030
     FM221800 18013G22KT P6SM -SHRA BKN025 OVC040=



000
FTUS46 KSEW 220200 AAA
TAFSEA
TAF AMD
KSEA 220252Z 2203/2306 16012KT P6SM VCSH OVC050
     FM220400 16012KT P6SM -RA OVC035
     FM220900 17015G25KT P6SM RA OVC030
     FM221800 18012KT P6SM -SHRA BKN030 OVC060=



000
FTUS46 KSEW 220200 AAA
TAFSEA
TAF AMD
KSEA 220252Z 2203/2306 16012KT P6SM VCSH OVC050
     FM220400 16012KT P6SM -RA OVC035
     FM220900 17015G25KT P6SM RA OVC030
     FM221800 18012KT P6SM -SHRA BKN030 OVC060=



000
FTUS46 KSEW 220200 AAA
TAFHQM
TAF AMD
KHQM 220201Z 2202/2224 16020G32KT 2SM RA BR OVC020
     FM220600 17022G38KT 2SM RA BR OVC010
     FM221200 17018G30KT 4SM -RA OVC010
     FM221800 16013KT 4SM -RA BR OVC015=



000
FTUS46 KSEW 220200 AAA
TAFHQM
TAF AMD
KHQM 220201Z 2202/2224 16020G32KT 2SM RA BR OVC020
     FM220600 17022G38KT 2SM RA BR OVC010
     FM221200 17018G30KT 4SM -RA OVC010
     FM221800 16013KT 4SM -RA BR OVC015=



000
FTUS46 KSEW 212300
TAFOLM
TAF
KOLM 212320Z 2200/2224 19013G22KT P6SM FEW030 BKN060
     FM220100 19012G21KT P6SM -RA OVC040
     FM220400 19012G21KT 5SM RA BR OVC030
     FM221000 19014G20KT 3SM RA BR OVC015
     FM222100 20010KT 3SM -RA BR OVC020=



000
FTUS46 KSEW 212300
TAFCLM
TAF
KCLM 212320Z 2200/2224 VRB04KT P6SM -RA OVC060
     FM220400 08004KT P6SM RA OVC040
     FM220900 VRB05KT 4SM RA BR OVC020=



000
FTUS46 KSEW 212300
TAFHQM
TAF
KHQM 212320Z 2200/2224 15014G23KT P6SM -RA BKN025 OVC030
     FM220300 16018G28KT 5SM RA BR OVC020
     FM220700 17022G35KT 4SM RA BR OVC010
     FM221800 16013KT 4SM -RA BR OVC015=



000
FTUS46 KSEW 212300
TAFBFI
TAF
KBFI 212320Z 2200/2224 17012KT P6SM BKN040 OVC060
     FM220300 15010KT P6SM -RA OVC030
     FM220900 16012G20KT P6SM -RA OVC030
     FM221800 17010KT P6SM -SHRA BKN030 OVC060=



000
FTUS46 KSEW 212300
TAFSEA
TAF
KSEA 212320Z 2200/2306 18012KT P6SM BKN030 BKN060
     FM220300 16012KT P6SM -RA BKN030 OVC040
     FM220900 17015G25KT P6SM RA OVC030
     FM221800 18012KT P6SM -SHRA BKN030 OVC060=



000
FTUS46 KSEW 212300
TAFHQM
TAF
KHQM 212320Z 2200/2224 15014G23KT P6SM -RA BKN025 OVC030
     FM220300 16018G28KT 5SM RA BR OVC020
     FM220700 17022G35KT 4SM RA BR OVC010
     FM221800 16013KT 4SM -RA BR OVC015=



000
FTUS46 KSEW 212300
TAFBFI
TAF
KBFI 212320Z 2200/2224 17012KT P6SM BKN040 OVC060
     FM220300 15010KT P6SM -RA OVC030
     FM220900 16012G20KT P6SM -RA OVC030
     FM221800 17010KT P6SM -SHRA BKN030 OVC060=



000
FTUS46 KSEW 212300
TAFPAE
TAF
KPAE 212320Z 2200/2224 17012G20KT P6SM BKN030 OVC070
     FM220300 15016G25KT P6SM -RA OVC030
     FM220800 17018G28KT P6SM -RA OVC025
     FM221800 18013G22KT P6SM -SHRA BKN025 OVC040=



000
FTUS46 KSEW 212300
TAFOLM
TAF
KOLM 212320Z 2200/2224 19013G22KT P6SM FEW030 BKN060
     FM220100 19012G21KT P6SM -RA OVC040
     FM220400 19012G21KT 5SM RA BR OVC030
     FM221000 19014G20KT 3SM RA BR OVC015
     FM222100 20010KT 3SM -RA BR OVC020=



000
FTUS46 KSEW 212300
TAFBLI
TAF
KBLI 212320Z 2200/2224 16012G20KT P6SM SCT035 OVC080
     FM220100 16015G25KT P6SM -RA OVC035
     FM220400 15020G30KT P6SM RA OVC035
     FM221000 14022G34KT 4SM RA BR OVC020=



000
FTUS46 KSEW 212300
TAFCLM
TAF
KCLM 212320Z 2200/2224 VRB04KT P6SM -RA OVC060
     FM220400 08004KT P6SM RA OVC040
     FM220900 VRB05KT 4SM RA BR OVC020=



000
FTUS46 KSEW 212300
TAFPAE
TAF
KPAE 212320Z 2200/2224 17012G20KT P6SM BKN030 OVC070
     FM220300 15016G25KT P6SM -RA OVC030
     FM220800 17018G28KT P6SM -RA OVC025
     FM221800 18013G22KT P6SM -SHRA BKN025 OVC040=



000
FTUS46 KSEW 212300
TAFSEA
TAF
KSEA 212320Z 2200/2306 18012KT P6SM BKN030 BKN060
     FM220300 16012KT P6SM -RA BKN030 OVC040
     FM220900 17015G25KT P6SM RA OVC030
     FM221800 18012KT P6SM -SHRA BKN030 OVC060=



000
FTUS46 KSEW 212300
TAFBLI
TAF
KBLI 212320Z 2200/2224 16012G20KT P6SM SCT035 OVC080
     FM220100 16015G25KT P6SM -RA OVC035
     FM220400 15020G30KT P6SM RA OVC035
     FM221000 14022G34KT 4SM RA BR OVC020=



000
FTUS46 KSEW 212000 AAA
TAFSEA
TAF AMD
KSEA 212059Z 2121/2224 18012KT P6SM FEW020 SCT030 BKN050
     FM220300 16012KT P6SM -RA SCT020 OVC040
     FM220900 17015G25KT P6SM RA OVC020
     FM221800 18012KT P6SM -SHRA BKN030 OVC060=



000
FTUS46 KSEW 211700
TAFHQM
TAF
KHQM 211723Z 2118/2218 14010KT P6SM FEW035 SCT070 BKN120
      TEMPO 2118/2122 4SM -SHRA BR BKN035 OVC070
     FM212200 15014G23KT P6SM -RA BKN035 OVC070
     FM220300 16018G28KT 5SM RA OVC030
     FM220700 17022G35KT 4SM RA BR OVC020=



000
FTUS46 KSEW 211700
TAFOLM
TAF
KOLM 211723Z 2118/2218 19010KT P6SM FEW030 SCT070 BKN150
      TEMPO 2118/2121 -SHRA SCT025 BKN050
     FM220100 19012KT P6SM -RA OVC040
     FM220400 19012KT 5SM RA BR OVC030
     FM221000 19014G20KT 3SM RA BR OVC015=



000
FTUS46 KSEW 211700
TAFBFI
TAF
KBFI 211723Z 2118/2218 17012KT P6SM FEW050 SCT080 BKN150
      TEMPO 2118/2121 -SHRA SCT030 BKN045
     FM220300 15010KT P6SM -RA OVC045
     FM220900 16012G20KT P6SM -RA OVC030=



000
FTUS46 KSEW 211700
TAFCLM
TAF
KCLM 211723Z 2118/2218 00000KT P6SM FEW070 BKN150
     FM212300 VRB04KT P6SM -RA OVC050
     FM220400 08004KT P6SM RA OVC035
     FM220900 VRB05KT 4SM RA BR OVC020=



000
FTUS46 KSEW 211700
TAFPAE
TAF
KPAE 211723Z 2118/2218 17012G20KT P6SM SCT015 BKN070
      TEMPO 2118/2121 -SHRA BKN015 OVC070
     FM220300 15016G25KT P6SM -RA OVC040
     FM220800 17018G28KT P6SM -RA OVC025=



000
FTUS46 KSEW 211700
TAFBLI
TAF
KBLI 211723Z 2118/2218 16012G20KT P6SM FEW035 SCT080 BKN150
     FM220100 16015G25KT P6SM -RA OVC035
     FM220400 15020G30KT P6SM RA OVC035
     FM221000 14022G34KT 4SM RA BR OVC020=



000
FTUS46 KSEW 211700
TAFSEA
TAF
KSEA 211723Z 2118/2224 18012KT P6SM FEW040 SCT080 BKN150
      TEMPO 2118/2121 -SHRA SCT025 BKN040
     FM220300 16012KT P6SM -RA OVC040
     FM220900 17015G25KT P6SM RA OVC025
     FM221800 18012KT P6SM -SHRA BKN030 OVC060=



    US Dept of Commerce
    National Oceanic and Atmospheric Administration
    National Weather Service
    1325 East West Highway
    Silver Spring, MD 20910
    Page Author: NWS Internet Services Team
Disclaimer
Information Quality
Credits
Glossary
Privacy Policy
Freedom of Information Act (FOIA)
About Us
Career Opportunities